createdAt,value
2018-12-15T14:23:57.127Z,87.53
2018-12-15T14:26:28.333Z,103.97
2018-12-15T14:28:59.021Z,153.10
2018-12-15T14:31:31.102Z,97.43
2018-12-15T14:34:01.489Z,97.10
2018-12-15T14:36:32.723Z,87.37
2018-12-15T14:39:04.251Z,91.57
2018-12-15T14:41:35.941Z,88.93
2018-12-15T14:44:06.341Z,184.23
2018-12-15T14:46:37.002Z,99.13
2018-12-15T14:49:07.462Z,95.00
2018-12-15T14:51:38.430Z,114.77
2018-12-15T14:54:08.868Z,94.20
2018-12-15T14:56:39.456Z,121.30
2018-12-15T14:59:10.681Z,108.90
2018-12-15T15:01:42.130Z,82.40
2018-12-15T15:04:12.960Z,78.27
2018-12-15T15:06:43.541Z,163.17
2018-12-15T15:09:14.010Z,94.30
2018-12-15T15:11:44.635Z,88.23
2018-12-15T15:14:15.562Z,91.27
2018-12-15T15:16:47.646Z,83.70
2018-12-15T15:19:18.231Z,93.57
2018-12-15T15:21:48.733Z,105.90
2018-12-15T15:24:19.162Z,109.93
2018-12-15T15:26:50.074Z,111.93
2018-12-15T15:29:20.627Z,116.40
2018-12-15T15:31:51.596Z,122.07
2018-12-15T15:34:22.679Z,115.30
2018-12-15T15:36:53.565Z,122.20
2018-12-15T15:39:24.112Z,112.87
2018-12-15T15:41:55.025Z,102.67
2018-12-15T15:44:25.685Z,91.23
2018-12-15T15:46:56.854Z,97.80
2018-12-15T15:49:27.770Z,103.80
2018-12-15T15:52:00.968Z,42.60
2018-12-15T15:54:32.951Z,36.60
2018-12-15T15:57:08.349Z,36.03
2018-12-15T15:59:40.548Z,35.00
2018-12-15T16:02:13.832Z,33.13
2018-12-15T16:04:46.924Z,32.43
2018-12-15T16:07:21.140Z,34.50
2018-12-15T16:09:55.501Z,34.87
2018-12-15T16:12:32.874Z,32.77
2018-12-15T16:15:08.162Z,31.90
2018-12-15T16:17:44.824Z,30.97
2018-12-15T16:20:21.309Z,33.30
2018-12-15T16:23:00.303Z,30.17
2018-12-15T16:25:38.368Z,34.20
2018-12-15T16:28:19.589Z,32.00
2018-12-15T16:30:55.957Z,30.80
2018-12-15T16:33:33.762Z,26.87
2018-12-15T16:36:05.790Z,31.63
2018-12-15T16:38:38.729Z,28.47
2018-12-15T16:41:09.609Z,32.77
2018-12-15T16:43:42.433Z,102.30
2018-12-15T16:46:13.350Z,114.60
2018-12-15T16:48:43.713Z,125.43
2018-12-15T16:51:15.321Z,134.73
2018-12-15T16:53:46.008Z,139.73
2018-12-15T16:56:16.382Z,144.90
2018-12-15T16:58:46.621Z,146.57
2018-12-15T17:01:16.798Z,125.20
2018-12-15T17:03:47.133Z,109.43
2018-12-15T17:06:17.533Z,49.77
2018-12-15T17:08:47.768Z,51.13
2018-12-15T17:11:18.064Z,57.90
2018-12-15T17:13:48.550Z,51.37
2018-12-15T17:16:19.248Z,41.93
2018-12-15T17:18:49.846Z,38.90
2018-12-15T17:21:20.131Z,35.43
2018-12-15T17:23:50.374Z,36.70
2018-12-15T17:26:20.517Z,42.50
2018-12-15T17:28:50.921Z,46.67
2018-12-15T17:31:21.581Z,35.90
2018-12-15T17:33:53.271Z,38.40
2018-12-15T17:36:24.619Z,30.77
2018-12-15T17:38:55.065Z,28.40
2018-12-15T17:41:25.476Z,30.07
2018-12-15T17:51:03.087Z,26.97
2018-12-15T17:53:29.433Z,23.93
2018-12-15T17:55:59.858Z,23.43
2018-12-15T17:58:30.574Z,27.00
2018-12-15T18:01:01.382Z,29.47
2018-12-15T18:03:32.046Z,22.30
2018-12-15T18:06:02.722Z,37.00
2018-12-15T18:08:33.466Z,28.67
2018-12-15T18:11:03.969Z,21.83
2018-12-15T18:13:34.805Z,24.70
2018-12-15T18:16:06.072Z,23.27
2018-12-15T18:18:36.709Z,38.90
2018-12-15T18:21:09.993Z,29.63
2018-12-15T18:23:39.679Z,45.17
2018-12-15T18:26:11.280Z,33.20
2018-12-15T18:28:41.914Z,31.67
2018-12-15T18:31:12.606Z,30.77
2018-12-15T18:33:43.000Z,32.27
2018-12-15T18:36:13.496Z,27.87
2018-12-15T18:38:44.927Z,27.17
2018-12-15T18:41:15.843Z,32.87
2018-12-15T18:43:46.662Z,27.97
2018-12-15T18:46:17.387Z,28.57
2018-12-15T18:48:48.105Z,25.47
2018-12-15T18:51:18.745Z,25.20
2018-12-15T18:53:49.136Z,28.80
2018-12-15T18:56:20.026Z,26.67
2018-12-15T18:58:50.471Z,27.33
2018-12-15T19:01:20.782Z,32.00
2018-12-15T19:03:51.512Z,25.50
2018-12-15T19:06:22.363Z,24.10
2018-12-15T19:08:53.152Z,24.03
2018-12-15T19:11:24.273Z,24.87
2018-12-15T19:13:55.560Z,39.13
2018-12-15T19:16:26.419Z,38.20
2018-12-15T19:18:57.767Z,28.53
2018-12-15T19:21:31.769Z,20.10
2018-12-15T19:24:04.914Z,19.50
2018-12-15T19:26:35.084Z,19.00
2018-12-15T19:29:05.912Z,17.83
